sensor_id;sensor_type;location;lat;lon;timestamp;temperature;humidity
50162;DHT22;36061;48.116;11.612;2022-09-16T00:00:37;15.10;99.90
50162;DHT22;36061;48.116;11.612;2022-09-16T00:03:06;15.10;99.90
50162;DHT22;36061;48.116;11.612;2022-09-16T00:05:32;15.00;99.90
50162;DHT22;36061;48.116;11.612;2022-09-16T00:07:58;15.00;99.90
50162;DHT22;36061;48.116;11.612;2022-09-16T00:10:23;15.00;99.90
50162;DHT22;36061;48.116;11.612;2022-09-16T00:12:49;15.00;99.90
50162;DHT22;36061;48.116;11.612;2022-09-16T00:15:15;15.00;99.90
50162;DHT22;36061;48.116;11.612;2022-09-16T00:17:41;15.00;99.90
50162;DHT22;36061;48.116;11.612;2022-09-16T00:20:08;15.00;99.90
50162;DHT22;36061;48.116;11.612;2022-09-16T00:22:34;15.00;99.90
50162;DHT22;36061;48.116;11.612;2022-09-16T00:25:00;15.00;99.90
50162;DHT22;36061;48.116;11.612;2022-09-16T00:27:25;15.00;99.90
50162;DHT22;36061;48.116;11.612;2022-09-16T00:29:51;15.00;99.90
50162;DHT22;36061;48.116;11.612;2022-09-16T00:32:18;15.00;99.90
50162;DHT22;36061;48.116;11.612;2022-09-16T00:34:44;15.00;99.90
50162;DHT22;36061;48.116;11.612;2022-09-16T00:37:09;15.00;99.90
50162;DHT22;36061;48.116;11.612;2022-09-16T00:39:36;14.90;99.90
50162;DHT22;36061;48.116;11.612;2022-09-16T00:42:03;14.90;99.90
50162;DHT22;36061;48.116;11.612;2022-09-16T00:45:33;14.90;99.90
50162;DHT22;36061;48.116;11.612;2022-09-16T00:47:46;14.90;99.90
50162;DHT22;36061;48.116;11.612;2022-09-16T00:50:27;14.90;99.90
50162;DHT22;36061;48.116;11.612;2022-09-16T00:52:55;14.90;99.90
50162;DHT22;36061;48.116;11.612;2022-09-16T00:55:29;14.90;99.90
50162;DHT22;36061;48.116;11.612;2022-09-16T00:58:01;14.80;99.90
50162;DHT22;36061;48.116;11.612;2022-09-16T01:00:28;14.70;99.90
50162;DHT22;36061;48.116;11.612;2022-09-16T01:02:54;14.70;99.90
50162;DHT22;36061;48.116;11.612;2022-09-16T01:05:21;14.70;99.90
50162;DHT22;36061;48.116;11.612;2022-09-16T01:07:50;14.60;99.90
50162;DHT22;36061;48.116;11.612;2022-09-16T01:10:20;14.60;99.90
50162;DHT22;36061;48.116;11.612;2022-09-16T01:12:55;14.60;99.90
50162;DHT22;36061;48.116;11.612;2022-09-16T01:15:29;14.60;99.90
50162;DHT22;36061;48.116;11.612;2022-09-16T01:18:12;14.60;99.90
50162;DHT22;36061;48.116;11.612;2022-09-16T01:39:50;14.70;99.90
50162;DHT22;36061;48.116;11.612;2022-09-16T01:45:25;14.60;99.90
50162;DHT22;36061;48.116;11.612;2022-09-16T01:50:37;14.50;99.90
50162;DHT22;36061;48.116;11.612;2022-09-16T01:55:41;14.40;99.90
50162;DHT22;36061;48.116;11.612;2022-09-16T01:58:26;14.40;99.90
50162;DHT22;36061;48.116;11.612;2022-09-16T02:00:59;14.40;99.90
50162;DHT22;36061;48.116;11.612;2022-09-16T02:03:29;14.30;99.90
50162;DHT22;36061;48.116;11.612;2022-09-16T02:06:03;14.30;99.90
50162;DHT22;36061;48.116;11.612;2022-09-16T02:08:50;14.30;99.90
50162;DHT22;36061;48.116;11.612;2022-09-16T02:11:18;14.30;99.90
50162;DHT22;36061;48.116;11.612;2022-09-16T02:16:25;14.30;99.90
50162;DHT22;36061;48.116;11.612;2022-09-16T02:18:58;14.20;99.90
50162;DHT22;36061;48.116;11.612;2022-09-16T02:21:28;14.30;99.90
50162;DHT22;36061;48.116;11.612;2022-09-16T02:23:58;14.30;99.90
50162;DHT22;36061;48.116;11.612;2022-09-16T02:26:32;14.30;99.90
50162;DHT22;36061;48.116;11.612;2022-09-16T02:29:00;14.30;99.90
50162;DHT22;36061;48.116;11.612;2022-09-16T02:31:32;14.30;99.90
50162;DHT22;36061;48.116;11.612;2022-09-16T02:34:02;14.30;99.90
50162;DHT22;36061;48.116;11.612;2022-09-16T02:36:31;14.30;99.90
50162;DHT22;36061;48.116;11.612;2022-09-16T02:39:03;14.30;99.90
50162;DHT22;36061;48.116;11.612;2022-09-16T02:41:31;14.30;99.90
50162;DHT22;36061;48.116;11.612;2022-09-16T02:43:57;14.30;99.90
50162;DHT22;36061;48.116;11.612;2022-09-16T02:49:11;14.30;99.90
50162;DHT22;36061;48.116;11.612;2022-09-16T02:54:37;14.30;99.90
50162;DHT22;36061;48.116;11.612;2022-09-16T02:57:06;14.20;99.90
50162;DHT22;36061;48.116;11.612;2022-09-16T02:59:33;14.20;99.90
50162;DHT22;36061;48.116;11.612;2022-09-16T03:01:59;14.30;99.90
50162;DHT22;36061;48.116;11.612;2022-09-16T03:04:25;14.20;99.90
50162;DHT22;36061;48.116;11.612;2022-09-16T03:06:52;14.20;99.90
50162;DHT22;36061;48.116;11.612;2022-09-16T03:09:18;14.20;99.90
50162;DHT22;36061;48.116;11.612;2022-09-16T03:12:26;14.20;99.90
50162;DHT22;36061;48.116;11.612;2022-09-16T03:15:14;14.20;99.90
50162;DHT22;36061;48.116;11.612;2022-09-16T03:34:45;14.20;99.90
50162;DHT22;36061;48.116;11.612;2022-09-16T03:37:16;14.20;99.90
50162;DHT22;36061;48.116;11.612;2022-09-16T03:39:49;14.20;99.90
50162;DHT22;36061;48.116;11.612;2022-09-16T03:42:17;14.30;99.90
50162;DHT22;36061;48.116;11.612;2022-09-16T03:44:43;14.20;99.90
50162;DHT22;36061;48.116;11.612;2022-09-16T03:47:09;14.20;99.90
50162;DHT22;36061;48.116;11.612;2022-09-16T03:49:35;14.30;99.90
50162;DHT22;36061;48.116;11.612;2022-09-16T03:52:03;14.20;99.90
50162;DHT22;36061;48.116;11.612;2022-09-16T03:54:33;14.20;99.90
50162;DHT22;36061;48.116;11.612;2022-09-16T03:57:00;14.20;99.90
50162;DHT22;36061;48.116;11.612;2022-09-16T03:59:26;14.20;99.90
50162;DHT22;36061;48.116;11.612;2022-09-16T04:01:52;14.30;99.90
50162;DHT22;36061;48.116;11.612;2022-09-16T04:04:18;14.30;99.90
50162;DHT22;36061;48.116;11.612;2022-09-16T04:06:44;14.30;99.90
50162;DHT22;36061;48.116;11.612;2022-09-16T04:09:10;14.30;99.90
50162;DHT22;36061;48.116;11.612;2022-09-16T04:11:37;14.30;99.90
50162;DHT22;36061;48.116;11.612;2022-09-16T04:14:04;14.30;99.90
50162;DHT22;36061;48.116;11.612;2022-09-16T04:16:30;14.30;99.90
50162;DHT22;36061;48.116;11.612;2022-09-16T04:18:56;14.30;99.90
50162;DHT22;36061;48.116;11.612;2022-09-16T04:21:22;14.30;99.90
50162;DHT22;36061;48.116;11.612;2022-09-16T04:23:48;14.30;99.90
50162;DHT22;36061;48.116;11.612;2022-09-16T04:26:15;14.30;99.90
50162;DHT22;36061;48.116;11.612;2022-09-16T04:28:41;14.30;99.90
50162;DHT22;36061;48.116;11.612;2022-09-16T04:31:10;14.30;99.90
50162;DHT22;36061;48.116;11.612;2022-09-16T04:33:37;14.20;99.90
50162;DHT22;36061;48.116;11.612;2022-09-16T04:36:08;14.20;99.90
50162;DHT22;36061;48.116;11.612;2022-09-16T04:38:35;14.20;99.90
50162;DHT22;36061;48.116;11.612;2022-09-16T04:41:06;14.20;99.90
50162;DHT22;36061;48.116;11.612;2022-09-16T04:43:33;14.20;99.90
50162;DHT22;36061;48.116;11.612;2022-09-16T04:45:59;14.20;99.90
50162;DHT22;36061;48.116;11.612;2022-09-16T04:48:25;14.20;99.90
50162;DHT22;36061;48.116;11.612;2022-09-16T04:50:51;14.20;99.90
50162;DHT22;36061;48.116;11.612;2022-09-16T04:53:18;14.20;99.90
50162;DHT22;36061;48.116;11.612;2022-09-16T04:55:45;14.20;99.90
50162;DHT22;36061;48.116;11.612;2022-09-16T04:58:11;14.10;99.90
50162;DHT22;36061;48.116;11.612;2022-09-16T05:00:37;14.10;99.90
50162;DHT22;36061;48.116;11.612;2022-09-16T05:03:03;14.10;99.90
50162;DHT22;36061;48.116;11.612;2022-09-16T05:05:28;14.20;99.90
50162;DHT22;36061;48.116;11.612;2022-09-16T05:07:54;14.20;99.90
50162;DHT22;36061;48.116;11.612;2022-09-16T05:10:20;14.20;99.90
50162;DHT22;36061;48.116;11.612;2022-09-16T05:12:52;14.10;99.90
50162;DHT22;36061;48.116;11.612;2022-09-16T05:15:19;14.10;99.90
50162;DHT22;36061;48.116;11.612;2022-09-16T05:17:45;14.20;99.90
50162;DHT22;36061;48.116;11.612;2022-09-16T05:20:11;14.20;99.90
50162;DHT22;36061;48.116;11.612;2022-09-16T05:22:37;14.20;99.90
50162;DHT22;36061;48.116;11.612;2022-09-16T05:25:04;14.20;99.90
50162;DHT22;36061;48.116;11.612;2022-09-16T05:27:30;14.20;99.90
50162;DHT22;36061;48.116;11.612;2022-09-16T05:29:56;14.20;99.90
50162;DHT22;36061;48.116;11.612;2022-09-16T05:32:22;14.20;99.90
50162;DHT22;36061;48.116;11.612;2022-09-16T05:34:48;14.20;99.90
50162;DHT22;36061;48.116;11.612;2022-09-16T05:37:15;14.20;99.90
50162;DHT22;36061;48.116;11.612;2022-09-16T05:39:41;14.20;99.90
50162;DHT22;36061;48.116;11.612;2022-09-16T05:42:08;14.20;99.90
50162;DHT22;36061;48.116;11.612;2022-09-16T05:44:34;14.20;99.90
50162;DHT22;36061;48.116;11.612;2022-09-16T05:47:00;14.20;99.90
50162;DHT22;36061;48.116;11.612;2022-09-16T05:49:26;14.20;99.90
50162;DHT22;36061;48.116;11.612;2022-09-16T05:51:52;14.30;99.90
50162;DHT22;36061;48.116;11.612;2022-09-16T05:54:18;14.30;99.90
50162;DHT22;36061;48.116;11.612;2022-09-16T05:56:44;14.30;99.90
50162;DHT22;36061;48.116;11.612;2022-09-16T05:59:11;14.30;99.90
50162;DHT22;36061;48.116;11.612;2022-09-16T06:01:37;14.30;99.90
50162;DHT22;36061;48.116;11.612;2022-09-16T06:04:05;14.40;99.90
50162;DHT22;36061;48.116;11.612;2022-09-16T06:06:36;14.40;99.90
50162;DHT22;36061;48.116;11.612;2022-09-16T06:09:10;14.40;99.90
50162;DHT22;36061;48.116;11.612;2022-09-16T06:11:38;14.50;99.90
50162;DHT22;36061;48.116;11.612;2022-09-16T06:14:05;14.50;99.90
50162;DHT22;36061;48.116;11.612;2022-09-16T06:16:31;14.50;99.90
50162;DHT22;36061;48.116;11.612;2022-09-16T06:18:59;14.60;99.90
50162;DHT22;36061;48.116;11.612;2022-09-16T06:21:26;14.60;99.90
50162;DHT22;36061;48.116;11.612;2022-09-16T06:23:52;14.60;99.90
50162;DHT22;36061;48.116;11.612;2022-09-16T06:26:20;14.60;99.90
50162;DHT22;36061;48.116;11.612;2022-09-16T06:28:47;14.60;99.90
50162;DHT22;36061;48.116;11.612;2022-09-16T06:31:18;14.70;99.90
50162;DHT22;36061;48.116;11.612;2022-09-16T06:33:44;14.80;99.90
50162;DHT22;36061;48.116;11.612;2022-09-16T06:36:16;14.70;99.90
50162;DHT22;36061;48.116;11.612;2022-09-16T06:38:44;14.80;99.90
50162;DHT22;36061;48.116;11.612;2022-09-16T06:41:11;14.80;99.90
50162;DHT22;36061;48.116;11.612;2022-09-16T06:43:38;14.80;99.90
50162;DHT22;36061;48.116;11.612;2022-09-16T06:46:06;14.80;99.90
50162;DHT22;36061;48.116;11.612;2022-09-16T06:48:35;14.80;99.90
50162;DHT22;36061;48.116;11.612;2022-09-16T06:51:03;14.80;99.90
50162;DHT22;36061;48.116;11.612;2022-09-16T06:53:30;14.80;99.90
50162;DHT22;36061;48.116;11.612;2022-09-16T06:56:04;14.80;99.90
50162;DHT22;36061;48.116;11.612;2022-09-16T06:58:35;14.80;99.90
50162;DHT22;36061;48.116;11.612;2022-09-16T07:01:21;14.80;99.90
50162;DHT22;36061;48.116;11.612;2022-09-16T07:03:49;14.80;99.90
50162;DHT22;36061;48.116;11.612;2022-09-16T07:06:17;14.80;99.90
50162;DHT22;36061;48.116;11.612;2022-09-16T07:08:43;14.90;99.90
50162;DHT22;36061;48.116;11.612;2022-09-16T07:13:39;14.90;99.90
50162;DHT22;36061;48.116;11.612;2022-09-16T07:16:09;14.90;99.90
50162;DHT22;36061;48.116;11.612;2022-09-16T07:18:35;14.90;99.90
50162;DHT22;36061;48.116;11.612;2022-09-16T07:21:13;14.90;99.90
50162;DHT22;36061;48.116;11.612;2022-09-16T07:23:39;14.90;99.90
50162;DHT22;36061;48.116;11.612;2022-09-16T07:28:41;14.90;99.90
50162;DHT22;36061;48.116;11.612;2022-09-16T07:31:09;14.90;99.90
50162;DHT22;36061;48.116;11.612;2022-09-16T07:33:41;14.80;99.90
50162;DHT22;36061;48.116;11.612;2022-09-16T07:36:08;14.80;99.90
50162;DHT22;36061;48.116;11.612;2022-09-16T07:38:35;14.90;99.90
50162;DHT22;36061;48.116;11.612;2022-09-16T07:41:21;14.90;99.90
50162;DHT22;36061;48.116;11.612;2022-09-16T07:43:47;15.00;99.90
50162;DHT22;36061;48.116;11.612;2022-09-16T07:46:15;15.00;99.90
50162;DHT22;36061;48.116;11.612;2022-09-16T07:48:43;15.00;99.90
50162;DHT22;36061;48.116;11.612;2022-09-16T07:51:12;15.00;99.90
50162;DHT22;36061;48.116;11.612;2022-09-16T07:53:39;15.10;99.90
50162;DHT22;36061;48.116;11.612;2022-09-16T07:56:18;15.10;99.90
50162;DHT22;36061;48.116;11.612;2022-09-16T07:58:45;15.10;99.90
50162;DHT22;36061;48.116;11.612;2022-09-16T08:01:13;15.10;99.90
50162;DHT22;36061;48.116;11.612;2022-09-16T08:03:41;15.10;99.90
50162;DHT22;36061;48.116;11.612;2022-09-16T08:06:12;15.10;99.90
50162;DHT22;36061;48.116;11.612;2022-09-16T08:08:39;15.20;99.90
50162;DHT22;36061;48.116;11.612;2022-09-16T08:11:05;15.20;99.90
50162;DHT22;36061;48.116;11.612;2022-09-16T08:13:32;15.20;99.90
50162;DHT22;36061;48.116;11.612;2022-09-16T08:16:01;15.30;99.90
50162;DHT22;36061;48.116;11.612;2022-09-16T08:18:31;15.30;99.90
50162;DHT22;36061;48.116;11.612;2022-09-16T08:20:57;15.30;99.90
50162;DHT22;36061;48.116;11.612;2022-09-16T08:23:24;15.30;99.90
50162;DHT22;36061;48.116;11.612;2022-09-16T08:25:56;15.30;99.90
50162;DHT22;36061;48.116;11.612;2022-09-16T08:28:23;15.40;99.90
50162;DHT22;36061;48.116;11.612;2022-09-16T08:30:49;15.40;99.90
50162;DHT22;36061;48.116;11.612;2022-09-16T08:33:15;15.40;99.90
50162;DHT22;36061;48.116;11.612;2022-09-16T08:36:08;15.40;99.90
50162;DHT22;36061;48.116;11.612;2022-09-16T08:38:33;15.50;99.90
50162;DHT22;36061;48.116;11.612;2022-09-16T08:49:42;15.60;99.90
50162;DHT22;36061;48.116;11.612;2022-09-16T08:52:30;15.50;99.90
50162;DHT22;36061;48.116;11.612;2022-09-16T08:55:31;15.60;99.90
50162;DHT22;36061;48.116;11.612;2022-09-16T09:00:26;15.60;99.90
50162;DHT22;36061;48.116;11.612;2022-09-16T09:05:57;15.70;99.90
50162;DHT22;36061;48.116;11.612;2022-09-16T09:08:47;15.70;99.90
50162;DHT22;36061;48.116;11.612;2022-09-16T09:17:08;15.70;99.90
50162;DHT22;36061;48.116;11.612;2022-09-16T09:20:03;15.70;99.90
50162;DHT22;36061;48.116;11.612;2022-09-16T09:22:44;15.70;99.90
50162;DHT22;36061;48.116;11.612;2022-09-16T09:25:26;15.70;99.90
50162;DHT22;36061;48.116;11.612;2022-09-16T09:41:28;15.40;99.90
50162;DHT22;36061;48.116;11.612;2022-09-16T09:43:56;15.40;99.90
50162;DHT22;36061;48.116;11.612;2022-09-16T09:46:39;15.40;99.90
50162;DHT22;36061;48.116;11.612;2022-09-16T09:51:57;15.40;99.90
50162;DHT22;36061;48.116;11.612;2022-09-16T09:54:28;15.40;99.90
50162;DHT22;36061;48.116;11.612;2022-09-16T10:00:02;15.40;99.90
50162;DHT22;36061;48.116;11.612;2022-09-16T10:02:39;15.40;99.90
50162;DHT22;36061;48.116;11.612;2022-09-16T10:05:11;15.40;99.90
50162;DHT22;36061;48.116;11.612;2022-09-16T10:07:43;15.40;99.90
50162;DHT22;36061;48.116;11.612;2022-09-16T10:10:15;15.30;99.90
50162;DHT22;36061;48.116;11.612;2022-09-16T10:12:41;15.30;99.90
50162;DHT22;36061;48.116;11.612;2022-09-16T10:17:48;15.30;99.90
50162;DHT22;36061;48.116;11.612;2022-09-16T10:23:01;15.30;99.90
50162;DHT22;36061;48.116;11.612;2022-09-16T10:25:29;15.20;99.90
50162;DHT22;36061;48.116;11.612;2022-09-16T10:28:16;15.20;99.90
50162;DHT22;36061;48.116;11.612;2022-09-16T10:30:56;15.20;99.90
50162;DHT22;36061;48.116;11.612;2022-09-16T10:36:06;15.10;99.90
50162;DHT22;36061;48.116;11.612;2022-09-16T10:38:36;15.10;99.90
50162;DHT22;36061;48.116;11.612;2022-09-16T10:41:09;15.00;99.90
50162;DHT22;36061;48.116;11.612;2022-09-16T10:43:46;15.10;99.90
50162;DHT22;36061;48.116;11.612;2022-09-16T10:46:14;15.10;99.90
50162;DHT22;36061;48.116;11.612;2022-09-16T10:48:42;15.10;99.90
50162;DHT22;36061;48.116;11.612;2022-09-16T10:51:21;15.10;99.90
50162;DHT22;36061;48.116;11.612;2022-09-16T10:53:55;15.20;99.90
50162;DHT22;36061;48.116;11.612;2022-09-16T10:56:24;15.20;99.90
50162;DHT22;36061;48.116;11.612;2022-09-16T10:59:07;15.20;99.90
50162;DHT22;36061;48.116;11.612;2022-09-16T11:09:58;15.20;99.90
50162;DHT22;36061;48.116;11.612;2022-09-16T11:18:23;15.10;99.90
50162;DHT22;36061;48.116;11.612;2022-09-16T11:24:11;14.90;99.90
50162;DHT22;36061;48.116;11.612;2022-09-16T11:29:20;14.70;99.90
50162;DHT22;36061;48.116;11.612;2022-09-16T11:31:53;14.60;99.90
50162;DHT22;36061;48.116;11.612;2022-09-16T11:37:29;14.30;99.90
50162;DHT22;36061;48.116;11.612;2022-09-16T11:42:41;14.00;99.90
50162;DHT22;36061;48.116;11.612;2022-09-16T11:55:59;13.70;99.90
50162;DHT22;36061;48.116;11.612;2022-09-16T12:01:34;13.30;99.90
50162;DHT22;36061;48.116;11.612;2022-09-16T12:04:36;13.20;99.90
50162;DHT22;36061;48.116;11.612;2022-09-16T12:07:18;13.10;99.90
50162;DHT22;36061;48.116;11.612;2022-09-16T12:10:01;13.00;99.90
50162;DHT22;36061;48.116;11.612;2022-09-16T12:12:34;12.90;99.90
50162;DHT22;36061;48.116;11.612;2022-09-16T12:15:16;12.80;99.90
50162;DHT22;36061;48.116;11.612;2022-09-16T12:17:58;12.80;99.90
50162;DHT22;36061;48.116;11.612;2022-09-16T12:20:35;12.80;99.90
50162;DHT22;36061;48.116;11.612;2022-09-16T12:25:47;12.70;99.90
50162;DHT22;36061;48.116;11.612;2022-09-16T12:28:30;12.70;99.90
50162;DHT22;36061;48.116;11.612;2022-09-16T12:31:28;12.70;99.90
50162;DHT22;36061;48.116;11.612;2022-09-16T12:34:02;12.70;99.90
50162;DHT22;36061;48.116;11.612;2022-09-16T12:36:32;12.80;99.90
50162;DHT22;36061;48.116;11.612;2022-09-16T12:39:00;12.80;99.90
50162;DHT22;36061;48.116;11.612;2022-09-16T13:03:44;13.30;99.90
50162;DHT22;36061;48.116;11.612;2022-09-16T13:06:21;13.20;99.90
50162;DHT22;36061;48.116;11.612;2022-09-16T13:08:47;13.20;99.90
50162;DHT22;36061;48.116;11.612;2022-09-16T13:11:26;13.20;99.90
50162;DHT22;36061;48.116;11.612;2022-09-16T13:13:55;13.20;99.90
50162;DHT22;36061;48.116;11.612;2022-09-16T13:16:31;13.20;99.90
50162;DHT22;36061;48.116;11.612;2022-09-16T13:21:48;13.10;99.90
50162;DHT22;36061;48.116;11.612;2022-09-16T13:24:29;13.10;99.90
50162;DHT22;36061;48.116;11.612;2022-09-16T13:26:56;13.10;99.90
50162;DHT22;36061;48.116;11.612;2022-09-16T13:32:02;13.10;99.90
50162;DHT22;36061;48.116;11.612;2022-09-16T13:34:28;13.10;99.90
50162;DHT22;36061;48.116;11.612;2022-09-16T13:36:54;13.10;99.90
50162;DHT22;36061;48.116;11.612;2022-09-16T13:39:32;13.10;99.90
50162;DHT22;36061;48.116;11.612;2022-09-16T13:42:19;13.10;99.90
50162;DHT22;36061;48.116;11.612;2022-09-16T13:44:45;13.10;99.90
50162;DHT22;36061;48.116;11.612;2022-09-16T13:50:12;13.00;99.90
50162;DHT22;36061;48.116;11.612;2022-09-16T13:52:38;13.00;99.90
50162;DHT22;36061;48.116;11.612;2022-09-16T13:55:19;13.00;99.90
50162;DHT22;36061;48.116;11.612;2022-09-16T13:58:20;13.00;99.90
50162;DHT22;36061;48.116;11.612;2022-09-16T14:01:20;13.00;99.90
50162;DHT22;36061;48.116;11.612;2022-09-16T14:12:02;13.10;99.90
50162;DHT22;36061;48.116;11.612;2022-09-16T14:14:31;13.10;99.90
50162;DHT22;36061;48.116;11.612;2022-09-16T14:17:02;13.10;99.90
50162;DHT22;36061;48.116;11.612;2022-09-16T14:19:33;13.00;99.90
50162;DHT22;36061;48.116;11.612;2022-09-16T14:22:15;13.00;99.90
50162;DHT22;36061;48.116;11.612;2022-09-16T14:24:43;13.00;99.90
50162;DHT22;36061;48.116;11.612;2022-09-16T14:27:21;13.00;99.90
50162;DHT22;36061;48.116;11.612;2022-09-16T14:32:29;12.90;99.90
50162;DHT22;36061;48.116;11.612;2022-09-16T14:34:58;12.80;99.90
50162;DHT22;36061;48.116;11.612;2022-09-16T14:37:27;12.80;99.90
50162;DHT22;36061;48.116;11.612;2022-09-16T14:39:54;12.70;99.90
50162;DHT22;36061;48.116;11.612;2022-09-16T14:42:21;12.70;99.90
50162;DHT22;36061;48.116;11.612;2022-09-16T14:44:53;12.80;99.90
50162;DHT22;36061;48.116;11.612;2022-09-16T14:47:35;12.80;99.90
50162;DHT22;36061;48.116;11.612;2022-09-16T14:50:11;12.90;99.90
50162;DHT22;36061;48.116;11.612;2022-09-16T14:52:38;12.90;99.90
50162;DHT22;36061;48.116;11.612;2022-09-16T14:55:16;12.90;99.90
50162;DHT22;36061;48.116;11.612;2022-09-16T14:57:43;12.90;99.90
50162;DHT22;36061;48.116;11.612;2022-09-16T15:00:12;12.90;99.90
50162;DHT22;36061;48.116;11.612;2022-09-16T15:02:47;12.90;99.90
50162;DHT22;36061;48.116;11.612;2022-09-16T15:07:47;12.90;99.90
50162;DHT22;36061;48.116;11.612;2022-09-16T15:12:49;12.80;99.90
50162;DHT22;36061;48.116;11.612;2022-09-16T15:15:23;12.80;99.90
50162;DHT22;36061;48.116;11.612;2022-09-16T15:18:32;12.80;99.90
50162;DHT22;36061;48.116;11.612;2022-09-16T15:23:29;12.80;99.90
50162;DHT22;36061;48.116;11.612;2022-09-16T15:26:10;12.80;99.90
50162;DHT22;36061;48.116;11.612;2022-09-16T15:28:36;12.90;99.90
50162;DHT22;36061;48.116;11.612;2022-09-16T15:31:02;12.90;99.90
50162;DHT22;36061;48.116;11.612;2022-09-16T15:35:59;13.00;99.90
50162;DHT22;36061;48.116;11.612;2022-09-16T15:38:27;13.00;99.90
50162;DHT22;36061;48.116;11.612;2022-09-16T15:41:04;13.00;99.90
50162;DHT22;36061;48.116;11.612;2022-09-16T15:43:36;13.00;99.90
50162;DHT22;36061;48.116;11.612;2022-09-16T15:46:27;13.00;99.90
50162;DHT22;36061;48.116;11.612;2022-09-16T15:48:59;13.00;99.90
50162;DHT22;36061;48.116;11.612;2022-09-16T15:51:44;13.00;99.90
50162;DHT22;36061;48.116;11.612;2022-09-16T15:54:28;13.00;99.90
50162;DHT22;36061;48.116;11.612;2022-09-16T15:56:57;13.00;99.90
50162;DHT22;36061;48.116;11.612;2022-09-16T15:59:35;13.00;99.90
50162;DHT22;36061;48.116;11.612;2022-09-16T16:02:04;12.90;99.90
50162;DHT22;36061;48.116;11.612;2022-09-16T16:04:33;12.90;99.90
50162;DHT22;36061;48.116;11.612;2022-09-16T16:07:01;12.90;99.90
50162;DHT22;36061;48.116;11.612;2022-09-16T16:12:01;12.80;99.90
50162;DHT22;36061;48.116;11.612;2022-09-16T16:14:30;12.80;99.90
50162;DHT22;36061;48.116;11.612;2022-09-16T16:17:16;12.80;99.90
50162;DHT22;36061;48.116;11.612;2022-09-16T16:19:44;12.80;99.90
50162;DHT22;36061;48.116;11.612;2022-09-16T16:22:10;12.80;99.90
50162;DHT22;36061;48.116;11.612;2022-09-16T16:24:37;12.80;99.90
50162;DHT22;36061;48.116;11.612;2022-09-16T16:27:03;12.80;99.90
50162;DHT22;36061;48.116;11.612;2022-09-16T16:29:29;12.80;99.90
50162;DHT22;36061;48.116;11.612;2022-09-16T16:34:34;12.90;99.90
50162;DHT22;36061;48.116;11.612;2022-09-16T16:37:00;12.90;99.90
50162;DHT22;36061;48.116;11.612;2022-09-16T16:39:26;12.90;99.90
50162;DHT22;36061;48.116;11.612;2022-09-16T16:41:52;12.90;99.90
50162;DHT22;36061;48.116;11.612;2022-09-16T16:44:19;12.90;99.90
50162;DHT22;36061;48.116;11.612;2022-09-16T16:46:47;12.90;99.90
50162;DHT22;36061;48.116;11.612;2022-09-16T16:49:13;12.80;99.90
50162;DHT22;36061;48.116;11.612;2022-09-16T16:51:39;12.80;99.90
50162;DHT22;36061;48.116;11.612;2022-09-16T16:54:05;12.80;99.90
50162;DHT22;36061;48.116;11.612;2022-09-16T16:56:31;12.80;99.90
50162;DHT22;36061;48.116;11.612;2022-09-16T16:58:57;12.80;99.90
50162;DHT22;36061;48.116;11.612;2022-09-16T17:01:23;12.80;99.90
50162;DHT22;36061;48.116;11.612;2022-09-16T17:03:49;12.80;99.90
50162;DHT22;36061;48.116;11.612;2022-09-16T17:06:16;12.80;99.90
50162;DHT22;36061;48.116;11.612;2022-09-16T17:08:42;12.80;99.90
50162;DHT22;36061;48.116;11.612;2022-09-16T17:11:12;12.80;99.90
50162;DHT22;36061;48.116;11.612;2022-09-16T17:13:41;12.70;99.90
50162;DHT22;36061;48.116;11.612;2022-09-16T17:16:09;12.70;99.90
50162;DHT22;36061;48.116;11.612;2022-09-16T17:18:36;12.70;99.90
50162;DHT22;36061;48.116;11.612;2022-09-16T17:21:15;12.70;99.90
50162;DHT22;36061;48.116;11.612;2022-09-16T17:23:41;12.70;99.90
50162;DHT22;36061;48.116;11.612;2022-09-16T17:26:07;12.70;99.90
50162;DHT22;36061;48.116;11.612;2022-09-16T17:28:34;12.70;99.90
50162;DHT22;36061;48.116;11.612;2022-09-16T17:31:00;12.60;99.90
50162;DHT22;36061;48.116;11.612;2022-09-16T17:33:26;12.60;99.90
50162;DHT22;36061;48.116;11.612;2022-09-16T17:36:00;12.60;99.90
50162;DHT22;36061;48.116;11.612;2022-09-16T17:38:26;12.60;99.90
50162;DHT22;36061;48.116;11.612;2022-09-16T17:41:03;12.60;99.90
50162;DHT22;36061;48.116;11.612;2022-09-16T17:43:29;12.60;99.90
50162;DHT22;36061;48.116;11.612;2022-09-16T17:45:57;12.60;99.90
50162;DHT22;36061;48.116;11.612;2022-09-16T17:48:23;12.60;99.90
50162;DHT22;36061;48.116;11.612;2022-09-16T17:50:50;12.60;99.90
50162;DHT22;36061;48.116;11.612;2022-09-16T17:53:16;12.60;99.90
50162;DHT22;36061;48.116;11.612;2022-09-16T17:55:41;12.60;99.90
50162;DHT22;36061;48.116;11.612;2022-09-16T17:58:07;12.50;99.90
50162;DHT22;36061;48.116;11.612;2022-09-16T18:00:33;12.50;99.90
50162;DHT22;36061;48.116;11.612;2022-09-16T18:02:58;12.50;99.90
50162;DHT22;36061;48.116;11.612;2022-09-16T18:05:24;12.50;99.90
50162;DHT22;36061;48.116;11.612;2022-09-16T18:07:50;12.50;99.90
50162;DHT22;36061;48.116;11.612;2022-09-16T18:10:16;12.40;99.90
50162;DHT22;36061;48.116;11.612;2022-09-16T18:12:42;12.40;99.90
50162;DHT22;36061;48.116;11.612;2022-09-16T18:15:08;12.30;99.90
50162;DHT22;36061;48.116;11.612;2022-09-16T18:17:34;12.30;99.90
50162;DHT22;36061;48.116;11.612;2022-09-16T18:20:00;12.50;99.90
50162;DHT22;36061;48.116;11.612;2022-09-16T18:22:26;12.30;99.90
50162;DHT22;36061;48.116;11.612;2022-09-16T18:24:51;12.30;99.90
50162;DHT22;36061;48.116;11.612;2022-09-16T18:27:17;12.30;99.90
50162;DHT22;36061;48.116;11.612;2022-09-16T18:29:43;12.30;99.90
50162;DHT22;36061;48.116;11.612;2022-09-16T18:32:08;12.30;99.90
50162;DHT22;36061;48.116;11.612;2022-09-16T18:34:34;12.20;99.90
50162;DHT22;36061;48.116;11.612;2022-09-16T18:37:00;12.20;99.90
50162;DHT22;36061;48.116;11.612;2022-09-16T18:39:26;12.20;99.90
50162;DHT22;36061;48.116;11.612;2022-09-16T18:41:51;12.20;99.90
50162;DHT22;36061;48.116;11.612;2022-09-16T18:44:19;12.20;99.90
50162;DHT22;36061;48.116;11.612;2022-09-16T18:46:46;12.30;99.90
50162;DHT22;36061;48.116;11.612;2022-09-16T18:49:14;12.20;99.90
50162;DHT22;36061;48.116;11.612;2022-09-16T18:51:46;12.30;99.90
50162;DHT22;36061;48.116;11.612;2022-09-16T18:54:15;12.30;99.90
50162;DHT22;36061;48.116;11.612;2022-09-16T18:56:43;12.30;99.90
50162;DHT22;36061;48.116;11.612;2022-09-16T18:59:19;12.30;99.90